Time;durP1;ratioP1;P1;durP2;ratioP2;P2;SDS_P1;SDS_P2;PMS_P1;PMS_P2;Temp;Humidity;BMP_temperature;BMP_pressure;BME280_temperature;BME280_humidity;BME280_pressure;Samples;Min_cycle;Max_cycle;Signal;HPM_P1;HPM_P2
2022/04/29 00:00:38;;;;;;;16.73;13.02;;;;;;;;;;5051519;28;20096;-78
2022/04/29 00:03:07;;;;;;;15.48;12.05;;;;;;;;;;5051733;28;20504;-78
2022/04/29 00:05:37;;;;;;;14.00;11.48;;;;;;;;;;5051494;28;20539;-79
2022/04/29 00:08:04;;;;;;;16.02;11.98;;;;;;;;;;5050353;28;20092;-79
2022/04/29 00:10:30;;;;;;;15.87;10.90;;;;;;;;;;5048436;28;20136;-79
2022/04/29 00:12:57;;;;;;;16.02;12.32;;;;;;;;;;5051694;28;20045;-78
2022/04/29 00:15:23;;;;;;;16.02;12.27;;;;;;;;;;5051523;28;20072;-78
2022/04/29 00:17:50;;;;;;;14.65;12.23;;;;;;;;;;5050317;28;20077;-78
2022/04/29 00:20:16;;;;;;;17.98;12.93;;;;;;;;;;5051742;28;20087;-78
2022/04/29 00:22:44;;;;;;;14.10;11.48;;;;;;;;;;5051462;28;20095;-78
2022/04/29 00:25:11;;;;;;;16.83;12.10;;;;;;;;;;5050145;28;20457;-78
2022/04/29 00:27:38;;;;;;;17.23;12.60;;;;;;;;;;5053959;28;20091;-78
2022/04/29 00:30:05;;;;;;;16.15;13.65;;;;;;;;;;5055330;28;20132;-78
2022/04/29 00:32:31;;;;;;;18.48;12.63;;;;;;;;;;5055473;28;20095;-78
2022/04/29 00:34:57;;;;;;;20.48;12.98;;;;;;;;;;5055299;28;20135;-78
2022/04/29 00:37:24;;;;;;;17.65;13.10;;;;;;;;;;5054026;28;20088;-78
2022/04/29 00:39:51;;;;;;;18.80;13.85;;;;;;;;;;5055220;28;20483;-78
2022/04/29 00:42:18;;;;;;;17.25;13.15;;;;;;;;;;5055109;28;20084;-78
2022/04/29 00:44:45;;;;;;;16.92;13.00;;;;;;;;;;5053927;28;20087;-78
2022/04/29 00:47:12;;;;;;;17.70;13.70;;;;;;;;;;5055017;28;20092;-78
2022/04/29 00:49:39;;;;;;;15.98;12.73;;;;;;;;;;5055333;28;20111;-78
2022/04/29 00:52:08;;;;;;;14.88;12.35;;;;;;;;;;5054951;28;20052;-78
2022/04/29 00:54:41;;;;;;;15.20;12.52;;;;;;;;;;5053955;28;20382;-78
2022/04/29 00:57:10;;;;;;;15.00;12.18;;;;;;;;;;5054933;28;20091;-78
2022/04/29 00:59:43;;;;;;;17.42;13.00;;;;;;;;;;5053618;28;20076;-78
2022/04/29 01:02:09;;;;;;;18.13;14.40;;;;;;;;;;5055082;28;20080;-77
2022/04/29 01:04:37;;;;;;;18.05;13.68;;;;;;;;;;5053404;28;20061;-77
2022/04/29 01:07:04;;;;;;;17.27;13.43;;;;;;;;;;5054960;28;20127;-78
2022/04/29 01:09:30;;;;;;;18.70;13.35;;;;;;;;;;5054615;28;20178;-78
2022/04/29 01:11:56;;;;;;;17.65;13.50;;;;;;;;;;5054775;28;20114;-78
2022/04/29 01:14:23;;;;;;;16.25;13.40;;;;;;;;;;5053322;28;20084;-77
2022/04/29 01:16:49;;;;;;;16.38;12.75;;;;;;;;;;5054477;28;20128;-78
2022/04/29 01:19:16;;;;;;;17.63;14.07;;;;;;;;;;5054518;28;20102;-78
2022/04/29 01:21:42;;;;;;;18.83;14.23;;;;;;;;;;5054730;28;20056;-78
2022/04/29 01:24:09;;;;;;;17.55;13.20;;;;;;;;;;5053440;28;20123;-78
2022/04/29 01:26:36;;;;;;;18.25;12.30;;;;;;;;;;5054347;28;20140;-78
2022/04/29 01:29:02;;;;;;;17.47;12.73;;;;;;;;;;5054467;28;20080;-78
2022/04/29 01:31:29;;;;;;;17.63;13.20;;;;;;;;;;5054320;28;20092;-79
2022/04/29 01:33:56;;;;;;;16.87;12.30;;;;;;;;;;5054483;28;20377;-79
2022/04/29 01:36:22;;;;;;;17.38;12.77;;;;;;;;;;5053954;28;20095;-79
2022/04/29 01:38:49;;;;;;;16.83;13.35;;;;;;;;;;5054303;28;20055;-79
2022/04/29 01:41:15;;;;;;;16.88;12.88;;;;;;;;;;5054154;28;20513;-78
2022/04/29 01:43:42;;;;;;;18.90;12.57;;;;;;;;;;5053906;28;20346;-78
2022/04/29 01:46:08;;;;;;;18.00;12.75;;;;;;;;;;5053998;28;20182;-78
2022/04/29 01:48:35;;;;;;;15.55;12.82;;;;;;;;;;5053917;28;20049;-78
2022/04/29 01:51:06;;;;;;;14.80;12.02;;;;;;;;;;5054067;28;20147;-78
2022/04/29 01:53:33;;;;;;;16.63;12.10;;;;;;;;;;5054024;28;20045;-78
2022/04/29 01:55:59;;;;;;;17.55;12.10;;;;;;;;;;5053736;28;20076;-78
2022/04/29 01:58:25;;;;;;;15.57;11.27;;;;;;;;;;5053752;28;20489;-79
2022/04/29 02:00:52;;;;;;;15.60;12.45;;;;;;;;;;5053678;28;20073;-78
2022/04/29 02:03:18;;;;;;;15.63;12.10;;;;;;;;;;5053484;28;20614;-78
2022/04/29 02:05:46;;;;;;;17.13;13.32;;;;;;;;;;5053889;28;20055;-79
2022/04/29 02:08:13;;;;;;;;;;;;;;;;;;5052633;28;20071;-79
2022/04/29 02:10:39;;;;;;;16.63;12.48;;;;;;;;;;5051380;28;19925;-79
2022/04/29 02:13:05;;;;;;;16.92;13.23;;;;;;;;;;5053798;28;20068;-79
2022/04/29 02:15:32;;;;;;;16.73;13.13;;;;;;;;;;5052218;28;20408;-79
2022/04/29 02:17:58;;;;;;;14.70;12.38;;;;;;;;;;5053674;28;20370;-79
2022/04/29 02:20:25;;;;;;;20.08;12.52;;;;;;;;;;5053666;28;20087;-79
2022/04/29 02:22:53;;;;;;;15.98;11.98;;;;;;;;;;5053830;28;20056;-79
2022/04/29 02:25:19;;;;;;;14.70;11.82;;;;;;;;;;5053297;28;20085;-79
2022/04/29 02:27:46;;;;;;;16.53;11.77;;;;;;;;;;5053376;28;20049;-79
2022/04/29 02:30:13;;;;;;;16.60;12.30;;;;;;;;;;5051980;28;20080;-79
2022/04/29 02:32:41;;;;;;;14.20;11.83;;;;;;;;;;5053306;28;20048;-79
2022/04/29 02:35:07;;;;;;;15.27;11.60;;;;;;;;;;5053023;28;20317;-78
2022/04/29 02:37:34;;;;;;;17.42;11.48;;;;;;;;;;5053188;28;20080;-78
2022/04/29 02:40:00;;;;;;;15.95;12.25;;;;;;;;;;5052979;28;20080;-78
2022/04/29 02:42:28;;;;;;;14.07;11.88;;;;;;;;;;5051674;28;20083;-79
2022/04/29 02:44:54;;;;;;;15.68;11.90;;;;;;;;;;5053179;28;20045;-78
2022/04/29 02:47:20;;;;;;;14.55;11.43;;;;;;;;;;5052803;28;20111;-78
2022/04/29 02:49:48;;;;;;;15.65;11.90;;;;;;;;;;5052213;28;20126;-79
2022/04/29 02:52:14;;;;;;;16.15;11.82;;;;;;;;;;5052682;28;20628;-79
2022/04/29 02:54:41;;;;;;;14.07;11.73;;;;;;;;;;5052668;28;20080;-79
2022/04/29 02:57:08;;;;;;;16.35;11.85;;;;;;;;;;5052660;28;20083;-79
2022/04/29 02:59:34;;;;;;;17.58;13.23;;;;;;;;;;5052752;28;20118;-79
2022/04/29 03:02:01;;;;;;;17.13;12.52;;;;;;;;;;5052508;28;20051;-79
2022/04/29 03:04:28;;;;;;;17.40;13.27;;;;;;;;;;5052650;28;20114;-79
2022/04/29 03:06:54;;;;;;;17.52;13.02;;;;;;;;;;5052515;28;20110;-79
2022/04/29 03:09:21;;;;;;;18.35;13.35;;;;;;;;;;5052502;28;20488;-79
2022/04/29 03:11:50;;;;;;;16.80;12.95;;;;;;;;;;5052267;28;20552;-79
2022/04/29 03:14:16;;;;;;;17.40;13.40;;;;;;;;;;5052257;28;20099;-79
2022/04/29 03:16:48;;;;;;;15.35;12.52;;;;;;;;;;5052396;28;20498;-80
2022/04/29 03:19:15;;;;;;;19.15;12.88;;;;;;;;;;5051856;28;20041;-80
2022/04/29 03:21:41;;;;;;;23.02;13.50;;;;;;;;;;5052232;28;20045;-80
2022/04/29 03:24:08;;;;;;;15.35;12.73;;;;;;;;;;5052161;28;20107;-80
2022/04/29 03:26:35;;;;;;;21.75;13.85;;;;;;;;;;5052062;28;20088;-80
2022/04/29 03:29:02;;;;;;;17.20;12.13;;;;;;;;;;5052278;28;20044;-79
2022/04/29 03:31:28;;;;;;;17.55;13.35;;;;;;;;;;5052212;28;20377;-79
2022/04/29 03:33:55;;;;;;;19.50;13.45;;;;;;;;;;5051945;28;20052;-79
2022/04/29 03:36:22;;;;;;;18.50;14.30;;;;;;;;;;5050488;28;20080;-79
2022/04/29 03:38:48;;;;;;;18.50;13.75;;;;;;;;;;5052102;28;20088;-78
2022/04/29 03:41:14;;;;;;;19.70;13.88;;;;;;;;;;5051793;28;20071;-79
2022/04/29 03:43:41;;;;;;;20.40;13.48;;;;;;;;;;5051804;28;20045;-79
2022/04/29 03:46:07;;;;;;;19.73;13.77;;;;;;;;;;5051942;28;20462;-79
2022/04/29 03:51:19;;;;;;;18.67;14.15;;;;;;;;;;5051889;28;20049;-79
2022/04/29 03:53:46;;;;;;;20.63;13.93;;;;;;;;;;5051969;28;20041;-79
2022/04/29 03:56:13;;;;;;;20.92;13.43;;;;;;;;;;5051630;28;20080;-79
2022/04/29 03:58:39;;;;;;;18.95;12.50;;;;;;;;;;5050364;28;20551;-79
2022/04/29 04:01:06;;;;;;;18.42;13.35;;;;;;;;;;5050713;28;20477;-79
2022/04/29 04:03:32;;;;;;;16.92;13.05;;;;;;;;;;5050443;28;20049;-79
2022/04/29 04:08:44;;;;;;;16.88;12.95;;;;;;;;;;5051902;28;20049;-79
2022/04/29 04:11:11;;;;;;;17.85;12.80;;;;;;;;;;5051400;28;20085;-79
2022/04/29 04:13:37;;;;;;;18.20;12.90;;;;;;;;;;5051552;28;20107;-79
2022/04/29 04:16:04;;;;;;;18.05;12.55;;;;;;;;;;5051496;28;20088;-79
2022/04/29 04:18:30;;;;;;;16.67;11.82;;;;;;;;;;5051591;28;20483;-78
2022/04/29 04:20:58;;;;;;;17.10;11.95;;;;;;;;;;5050152;28;20080;-78
2022/04/29 04:23:24;;;;;;;17.27;12.25;;;;;;;;;;5050292;28;20048;-79
2022/04/29 04:25:50;;;;;;;16.55;12.00;;;;;;;;;;5051381;28;20541;-79
2022/04/29 04:28:17;;;;;;;17.13;11.68;;;;;;;;;;5051623;28;20111;-79
2022/04/29 04:30:43;;;;;;;15.38;12.48;;;;;;;;;;5051194;28;20500;-79
2022/04/29 04:33:10;;;;;;;18.17;12.43;;;;;;;;;;5049943;28;20049;-80
2022/04/29 04:35:36;;;;;;;20.52;13.05;;;;;;;;;;5051154;28;20084;-79
2022/04/29 04:38:03;;;;;;;17.20;11.75;;;;;;;;;;5051202;28;20083;-79
2022/04/29 04:40:29;;;;;;;18.40;12.18;;;;;;;;;;5050055;28;20099;-79
2022/04/29 04:42:55;;;;;;;21.27;13.13;;;;;;;;;;5051224;28;20084;-79
2022/04/29 04:45:22;;;;;;;19.60;13.77;;;;;;;;;;5050199;28;20099;-79
2022/04/29 04:47:48;;;;;;;19.10;12.95;;;;;;;;;;5051045;28;20508;-79
2022/04/29 04:50:15;;;;;;;16.92;12.50;;;;;;;;;;5051358;28;20081;-80
2022/04/29 04:52:45;;;;;;;17.58;12.45;;;;;;;;;;5049765;28;20151;-81
2022/04/29 04:55:11;;;;;;;22.35;12.52;;;;;;;;;;5051383;28;20103;-80
2022/04/29 04:57:38;;;;;;;18.85;13.02;;;;;;;;;;5050938;28;20072;-80
2022/04/29 05:00:05;;;;;;;18.85;12.93;;;;;;;;;;5049802;28;20073;-80
2022/04/29 05:02:31;;;;;;;20.35;13.65;;;;;;;;;;5050886;28;20099;-79
2022/04/29 05:04:58;;;;;;;20.55;13.52;;;;;;;;;;5051265;28;20071;-79
2022/04/29 05:07:24;;;;;;;19.17;12.70;;;;;;;;;;5051227;28;20102;-80
2022/04/29 05:09:51;;;;;;;17.60;12.20;;;;;;;;;;5049969;28;20098;-80
2022/04/29 05:12:17;;;;;;;17.02;11.57;;;;;;;;;;5051529;28;20451;-80
2022/04/29 05:14:44;;;;;;;17.02;13.05;;;;;;;;;;5054435;28;20077;-80
2022/04/29 05:17:10;;;;;;;17.48;12.30;;;;;;;;;;5054453;28;20044;-80
2022/04/29 05:19:36;;;;;;;15.52;11.85;;;;;;;;;;5054713;28;20052;-80
2022/04/29 05:22:04;;;;;;;18.43;12.87;;;;;;;;;;5054731;28;20055;-79
2022/04/29 05:24:30;;;;;;;16.55;12.15;;;;;;;;;;5054398;28;20088;-79
2022/04/29 05:26:57;;;;;;;15.70;11.90;;;;;;;;;;5053350;28;20061;-79
2022/04/29 05:29:23;;;;;;;23.75;13.77;;;;;;;;;;5053105;28;20076;-79
2022/04/29 05:31:49;;;;;;;16.77;12.55;;;;;;;;;;5054220;28;20085;-79
2022/04/29 05:34:16;;;;;;;21.10;12.80;;;;;;;;;;5054187;28;20042;-79
2022/04/29 05:36:43;;;;;;;21.40;13.77;;;;;;;;;;5053947;28;20057;-79
2022/04/29 05:44:40;;;;;;;16.05;11.90;;;;;;;;;;5054415;28;20080;-79
2022/04/29 05:47:07;;;;;;;15.68;12.70;;;;;;;;;;5053966;28;20088;-79
2022/04/29 05:49:33;;;;;;;17.15;12.65;;;;;;;;;;5053865;28;20092;-79
2022/04/29 05:52:03;;;;;;;19.02;12.27;;;;;;;;;;5053811;28;20555;-79
2022/04/29 05:54:31;;;;;;;17.52;12.10;;;;;;;;;;5053644;28;20049;-79
2022/04/29 05:56:57;;;;;;;;;;;;;;;;;;5054484;28;20057;-79
2022/04/29 05:59:23;;;;;;;18.08;12.55;;;;;;;;;;5052761;28;19932;-79
2022/04/29 06:01:50;;;;;;;17.73;12.73;;;;;;;;;;5054052;28;20127;-79
2022/04/29 06:04:17;;;;;;;14.70;11.93;;;;;;;;;;5052482;28;20475;-79
2022/04/29 06:06:43;;;;;;;19.58;12.55;;;;;;;;;;5053639;28;20048;-79
2022/04/29 06:09:10;;;;;;;21.15;13.93;;;;;;;;;;5053568;28;20095;-79
2022/04/29 06:11:36;;;;;;;18.23;13.55;;;;;;;;;;5053662;28;20049;-79
2022/04/29 06:14:03;;;;;;;20.00;13.77;;;;;;;;;;5052499;28;20045;-79
2022/04/29 06:16:29;;;;;;;16.70;13.00;;;;;;;;;;5053704;28;20044;-79
2022/04/29 06:18:56;;;;;;;19.45;14.88;;;;;;;;;;5053367;28;20091;-79
2022/04/29 06:21:22;;;;;;;17.52;13.48;;;;;;;;;;5053664;28;20468;-79
2022/04/29 06:23:49;;;;;;;17.73;13.93;;;;;;;;;;5052877;28;20072;-78
2022/04/29 06:26:15;;;;;;;20.00;14.07;;;;;;;;;;5052028;28;20085;-78
2022/04/29 06:28:42;;;;;;;17.33;13.73;;;;;;;;;;5051889;28;20053;-78
2022/04/29 06:31:08;;;;;;;20.95;15.23;;;;;;;;;;5053758;28;20053;-78
2022/04/29 06:33:35;;;;;;;20.67;15.32;;;;;;;;;;5053089;28;20080;-78
2022/04/29 06:36:02;;;;;;;17.52;13.88;;;;;;;;;;5051700;28;20085;-78
2022/04/29 06:38:29;;;;;;;18.48;14.18;;;;;;;;;;5053040;28;20408;-78
2022/04/29 06:40:56;;;;;;;17.58;13.13;;;;;;;;;;5053175;28;20041;-78
2022/04/29 06:43:22;;;;;;;19.87;14.23;;;;;;;;;;5052951;28;20092;-78
2022/04/29 06:45:49;;;;;;;20.55;14.02;;;;;;;;;;5052945;28;20080;-78
2022/04/29 06:48:16;;;;;;;15.80;12.88;;;;;;;;;;5053122;28;20049;-78
2022/04/29 06:50:42;;;;;;;18.58;14.10;;;;;;;;;;5052263;28;20052;-79
2022/04/29 06:53:08;;;;;;;18.65;14.23;;;;;;;;;;5052355;28;20049;-79
2022/04/29 06:55:39;;;;;;;21.48;14.68;;;;;;;;;;5052902;28;20126;-78
2022/04/29 06:58:05;;;;;;;20.02;14.32;;;;;;;;;;5052837;28;20073;-79
2022/04/29 07:00:32;;;;;;;20.15;14.05;;;;;;;;;;5051223;28;20077;-80
2022/04/29 07:03:02;;;;;;;19.35;14.45;;;;;;;;;;5052400;28;20515;-78
2022/04/29 07:05:31;;;;;;;22.02;15.02;;;;;;;;;;5052340;28;20445;-81
2022/04/29 07:07:57;;;;;;;;;;;;;;;;;;5051278;28;20083;-78
2022/04/29 07:10:23;;;;;;;18.52;14.27;;;;;;;;;;5050862;28;19925;-78
2022/04/29 07:12:50;;;;;;;20.17;14.32;;;;;;;;;;5051827;28;20505;-78
2022/04/29 07:15:17;;;;;;;16.80;13.75;;;;;;;;;;5052532;28;20079;-79
2022/04/29 07:17:44;;;;;;;17.23;14.00;;;;;;;;;;5050901;28;20477;-81
2022/04/29 07:20:11;;;;;;;18.20;13.98;;;;;;;;;;5051940;28;20045;-75
2022/04/29 07:22:39;;;;;;;18.90;13.32;;;;;;;;;;5051695;28;20072;-79
2022/04/29 07:25:06;;;;;;;18.80;13.30;;;;;;;;;;5052085;28;20072;-82
2022/04/29 07:27:33;;;;;;;16.52;13.00;;;;;;;;;;5050257;28;20088;-81
2022/04/29 07:30:00;;;;;;;16.98;13.65;;;;;;;;;;5051312;28;20048;-79
2022/04/29 07:32:26;;;;;;;15.52;13.32;;;;;;;;;;5050099;28;20568;-76
2022/04/29 07:43:08;;;;;;;14.48;12.35;;;;;;;;;;5051565;28;20080;-73
2022/04/29 07:45:36;;;;;;;17.50;12.85;;;;;;;;;;5051606;28;20080;-75
2022/04/29 07:48:03;;;;;;;;;;;;;;;;;;5050499;28;20055;-71
2022/04/29 07:50:30;;;;;;;13.73;11.23;;;;;;;;;;5051235;28;19932;-75
2022/04/29 07:52:57;;;;;;;13.82;11.13;;;;;;;;;;5050224;28;20090;-72
2022/04/29 07:55:23;;;;;;;13.65;11.90;;;;;;;;;;5051017;28;20072;-73
2022/04/29 07:57:49;;;;;;;13.20;11.48;;;;;;;;;;5051466;28;20053;-71
2022/04/29 08:00:16;;;;;;;15.57;11.75;;;;;;;;;;5051946;28;20095;-71
2022/04/29 08:02:43;;;;;;;12.45;11.18;;;;;;;;;;5050712;28;20049;-75
2022/04/29 08:05:10;;;;;;;14.73;10.98;;;;;;;;;;5051623;28;20049;-73
2022/04/29 08:07:36;;;;;;;13.50;11.10;;;;;;;;;;5051462;28;20110;-80
2022/04/29 08:10:03;;;;;;;13.43;11.25;;;;;;;;;;5050194;28;20075;-86
2022/04/29 08:12:30;;;;;;;14.95;11.00;;;;;;;;;;5050165;28;20080;-74
2022/04/29 08:14:56;;;;;;;17.23;11.43;;;;;;;;;;5051375;28;20532;-73
2022/04/29 08:17:25;;;;;;;14.90;11.38;;;;;;;;;;5050655;28;20481;-77
2022/04/29 08:19:52;;;;;;;14.20;10.88;;;;;;;;;;5051050;28;20555;-74
2022/04/29 08:22:18;;;;;;;12.45;11.15;;;;;;;;;;5051260;28;20088;-76
2022/04/29 08:24:45;;;;;;;12.85;10.60;;;;;;;;;;5051687;28;20048;-76
2022/04/29 08:27:13;;;;;;;13.00;10.10;;;;;;;;;;5051336;28;20044;-76
2022/04/29 08:29:43;;;;;;;10.82;9.48;;;;;;;;;;5051716;28;20071;-76
2022/04/29 08:32:10;;;;;;;11.68;9.50;;;;;;;;;;5051506;28;20048;-77
2022/04/29 08:34:37;;;;;;;8.35;7.05;;;;;;;;;;5050633;28;20128;-73
2022/04/29 08:37:04;;;;;;;10.35;7.20;;;;;;;;;;5051293;28;20060;-75
2022/04/29 08:39:30;;;;;;;9.23;7.87;;;;;;;;;;5051242;28;20500;-75
2022/04/29 08:42:00;;;;;;;8.77;7.73;;;;;;;;;;5051350;28;20083;-75
2022/04/29 08:44:29;;;;;;;10.52;8.43;;;;;;;;;;5051444;28;20099;-75
2022/04/29 08:46:56;;;;;;;8.95;7.28;;;;;;;;;;5051393;28;20049;-75
2022/04/29 08:49:24;;;;;;;8.30;7.30;;;;;;;;;;5054437;28;20060;-74
2022/04/29 08:51:51;;;;;;;8.25;7.50;;;;;;;;;;5053326;28;20539;-75
2022/04/29 08:59:57;;;;;;;12.10;9.20;;;;;;;;;;5055042;28;20099;-75
2022/04/29 09:02:25;;;;;;;13.35;8.90;;;;;;;;;;5052595;28;20084;-76
2022/04/29 09:04:53;;;;;;;10.55;8.73;;;;;;;;;;5054729;28;20064;-76
2022/04/29 09:07:19;;;;;;;;;;;;;;;;;;5055064;28;20102;-75
2022/04/29 09:10:02;;;;;;;9.52;8.50;;;;;;;;;;5054872;28;19920;-82
2022/04/29 09:12:29;;;;;;;10.70;8.85;;;;;;;;;;5055194;28;20143;-82
2022/04/29 09:15:23;;;;;;;10.18;8.20;;;;;;;;;;5054836;28;20049;-83
2022/04/29 09:17:50;;;;;;;10.23;8.18;;;;;;;;;;5045067;28;20144;-83
2022/04/29 09:20:18;;;;;;;9.50;8.40;;;;;;;;;;5052581;28;20549;-80
2022/04/29 09:22:46;;;;;;;10.13;8.43;;;;;;;;;;5053418;28;20107;-81
2022/04/29 09:25:13;;;;;;;9.98;8.27;;;;;;;;;;5053602;28;20048;-78
2022/04/29 09:27:59;;;;;;;8.82;7.75;;;;;;;;;;5053769;28;20458;-77
2022/04/29 09:30:32;;;;;;;9.90;8.35;;;;;;;;;;5053311;28;20088;-84
2022/04/29 09:32:58;;;;;;;8.98;7.93;;;;;;;;;;5052616;28;20084;-83
2022/04/29 09:35:38;;;;;;;10.27;7.80;;;;;;;;;;5053850;28;20528;-84
2022/04/29 09:40:51;;;;;;;10.23;7.90;;;;;;;;;;5054441;28;20455;-81
2022/04/29 09:43:29;;;;;;;9.70;8.07;;;;;;;;;;5053708;28;20080;-80
2022/04/29 09:46:07;;;;;;;12.48;8.82;;;;;;;;;;5053886;28;20080;-81
2022/04/29 09:48:53;;;;;;;13.35;7.95;;;;;;;;;;5053926;28;20052;-81
2022/04/29 09:51:38;;;;;;;11.30;8.18;;;;;;;;;;5052349;28;21161;-80
2022/04/29 09:54:08;;;;;;;12.10;8.73;;;;;;;;;;5052498;28;20045;-81
2022/04/29 09:56:34;;;;;;;11.32;8.27;;;;;;;;;;5052021;28;20041;-80
2022/04/29 09:59:01;;;;;;;9.82;7.93;;;;;;;;;;5050296;28;20045;-82
2022/04/29 10:01:28;;;;;;;9.93;8.35;;;;;;;;;;5050810;28;20114;-76
2022/04/29 10:03:55;;;;;;;11.60;8.13;;;;;;;;;;5052896;28;20060;-75
2022/04/29 10:06:23;;;;;;;10.27;7.15;;;;;;;;;;5053507;28;20056;-75
2022/04/29 10:08:50;;;;;;;12.32;8.10;;;;;;;;;;5053512;28;20507;-76
2022/04/29 10:11:17;;;;;;;9.98;7.38;;;;;;;;;;5053166;28;20524;-78
2022/04/29 10:13:43;;;;;;;;;;;;;;;;;;5053726;28;20081;-71
2022/04/29 10:16:11;;;;;;;13.80;8.27;;;;;;;;;;5053496;28;19924;-77
2022/04/29 10:21:24;;;;;;;10.88;8.02;;;;;;;;;;5053403;28;20552;-74
2022/04/29 10:23:50;;;;;;;11.75;7.97;;;;;;;;;;5052998;28;20077;-75
2022/04/29 10:26:20;;;;;;;10.23;7.63;;;;;;;;;;5050303;28;20533;-76
2022/04/29 10:28:47;;;;;;;10.35;7.70;;;;;;;;;;5053434;28;20088;-77
2022/04/29 10:31:18;;;;;;;10.98;8.85;;;;;;;;;;5053128;28;20087;-78
2022/04/29 10:33:45;;;;;;;11.13;8.60;;;;;;;;;;5052075;28;20081;-75
2022/04/29 10:36:14;;;;;;;11.68;9.50;;;;;;;;;;5053024;28;20076;-78
2022/04/29 10:38:42;;;;;;;11.60;9.15;;;;;;;;;;5051139;28;20585;-77
2022/04/29 10:41:23;;;;;;;13.10;9.77;;;;;;;;;;5053125;28;20080;-76
2022/04/29 10:43:49;;;;;;;14.98;9.90;;;;;;;;;;5052536;28;20053;-77
2022/04/29 10:46:17;;;;;;;13.65;10.50;;;;;;;;;;5052354;28;20109;-76
2022/04/29 10:48:44;;;;;;;13.65;10.35;;;;;;;;;;5052692;28;20053;-76
2022/04/29 10:51:17;;;;;;;12.23;9.70;;;;;;;;;;5053100;28;20114;-75
2022/04/29 10:53:45;;;;;;;14.27;10.40;;;;;;;;;;5051078;28;20653;-76
2022/04/29 10:56:24;;;;;;;11.38;10.18;;;;;;;;;;5052633;28;20045;-76
2022/04/29 10:58:50;;;;;;;13.80;10.30;;;;;;;;;;5052524;28;20075;-75
2022/04/29 11:01:17;;;;;;;12.80;10.63;;;;;;;;;;5051222;28;20045;-75
2022/04/29 11:03:47;;;;;;;11.23;9.50;;;;;;;;;;5052730;28;20053;-76
2022/04/29 11:06:14;;;;;;;12.98;10.13;;;;;;;;;;5053103;28;20440;-75
2022/04/29 11:08:41;;;;;;;12.85;9.73;;;;;;;;;;5050794;28;20099;-79
2022/04/29 11:11:08;;;;;;;14.10;9.30;;;;;;;;;;5050485;28;20052;-80
2022/04/29 11:13:37;;;;;;;11.57;10.27;;;;;;;;;;5050345;28;20045;-83
2022/04/29 11:16:24;;;;;;;11.60;9.38;;;;;;;;;;5051598;28;20405;-78
2022/04/29 11:19:10;;;;;;;12.55;8.95;;;;;;;;;;5050905;28;20400;-80
2022/04/29 11:27:07;;;;;;;11.85;8.85;;;;;;;;;;5052202;28;20519;-78
2022/04/29 11:29:40;;;;;;;9.55;8.45;;;;;;;;;;5052104;28;20087;-77
2022/04/29 11:32:07;;;;;;;10.88;8.48;;;;;;;;;;5051639;28;20052;-77
2022/04/29 11:34:57;;;;;;;11.07;8.77;;;;;;;;;;5050487;28;20037;-77
2022/04/29 11:37:24;;;;;;;11.48;8.55;;;;;;;;;;5050233;28;20102;-77
2022/04/29 11:39:51;;;;;;;9.23;8.32;;;;;;;;;;5051393;28;20045;-77
2022/04/29 11:42:19;;;;;;;12.95;8.18;;;;;;;;;;5050450;28;20148;-78
2022/04/29 11:44:51;;;;;;;;;;;;;;;;;;5052517;28;20085;-77
2022/04/29 11:47:24;;;;;;;9.93;7.80;;;;;;;;;;5051831;28;19943;-78
2022/04/29 11:49:51;;;;;;;10.73;7.65;;;;;;;;;;5052044;28;20044;-79
2022/04/29 11:52:25;;;;;;;8.82;7.90;;;;;;;;;;5051820;28;20477;-78
2022/04/29 11:54:53;;;;;;;8.52;7.68;;;;;;;;;;5051421;28;20094;-78
2022/04/29 11:57:20;;;;;;;13.30;7.85;;;;;;;;;;5051671;28;20045;-78
2022/04/29 11:59:46;;;;;;;8.63;7.72;;;;;;;;;;5052256;28;20424;-80
2022/04/29 12:02:19;;;;;;;11.00;7.40;;;;;;;;;;5051216;28;20064;-79
2022/04/29 12:04:52;;;;;;;9.70;7.38;;;;;;;;;;5051386;28;20056;-79
2022/04/29 12:07:19;;;;;;;10.52;7.13;;;;;;;;;;5048492;28;20076;-78
2022/04/29 12:09:45;;;;;;;7.95;7.25;;;;;;;;;;5050783;28;20045;-78
2022/04/29 12:12:25;;;;;;;9.05;7.22;;;;;;;;;;5051312;28;20053;-79
2022/04/29 12:14:52;;;;;;;8.95;7.93;;;;;;;;;;5051455;28;20134;-78
2022/04/29 12:17:19;;;;;;;9.13;7.30;;;;;;;;;;5051375;28;20084;-76
2022/04/29 12:19:55;;;;;;;8.90;7.28;;;;;;;;;;5051387;28;20524;-84
2022/04/29 12:22:31;;;;;;;9.45;7.82;;;;;;;;;;5051470;28;20521;-90
2022/04/29 12:25:16;;;;;;;10.15;8.05;;;;;;;;;;5054737;28;20497;-76
2022/04/29 12:27:43;;;;;;;12.00;8.20;;;;;;;;;;5055402;28;20049;-76
2022/04/29 12:36:12;;;;;;;7.28;6.57;;;;;;;;;;5054773;28;20072;-74
2022/04/29 12:38:39;;;;;;;8.77;7.05;;;;;;;;;;5054792;28;20107;-74
2022/04/29 12:41:15;;;;;;;8.98;6.65;;;;;;;;;;5054475;28;20544;-74
2022/04/29 12:43:42;;;;;;;7.75;6.57;;;;;;;;;;5055075;28;20072;-84
2022/04/29 12:46:12;;;;;;;9.75;6.30;;;;;;;;;;5055283;28;20138;-75
2022/04/29 12:48:44;;;;;;;7.60;6.00;;;;;;;;;;5055399;28;20056;-82
2022/04/29 12:51:24;;;;;;;7.88;5.93;;;;;;;;;;5053970;28;20052;-90
2022/04/29 12:53:51;;;;;;;6.10;5.50;;;;;;;;;;5052752;28;20081;-85
2022/04/29 12:56:17;;;;;;;;;;;;;;;;;;5054948;28;20052;-79
2022/04/29 12:58:44;;;;;;;7.15;5.40;;;;;;;;;;5051841;28;19971;-84
2022/04/29 13:01:11;;;;;;;6.97;5.30;;;;;;;;;;5054695;28;20044;-72
2022/04/29 13:03:37;;;;;;;6.40;5.80;;;;;;;;;;5054286;28;20041;-74
2022/04/29 13:06:04;;;;;;;7.18;6.40;;;;;;;;;;5055145;28;20080;-74
2022/04/29 13:08:31;;;;;;;8.10;6.33;;;;;;;;;;5055128;28;20542;-75
2022/04/29 13:10:58;;;;;;;6.22;5.63;;;;;;;;;;5054688;28;20040;-75
2022/04/29 13:13:25;;;;;;;8.32;6.32;;;;;;;;;;5054793;28;20146;-81
2022/04/29 13:15:52;;;;;;;6.93;6.18;;;;;;;;;;5054414;28;20447;-82
2022/04/29 13:18:19;;;;;;;7.07;6.30;;;;;;;;;;5054261;28;20051;-80
2022/04/29 13:20:46;;;;;;;7.32;6.00;;;;;;;;;;5054765;28;20084;-80
2022/04/29 13:23:13;;;;;;;7.32;6.65;;;;;;;;;;5053152;28;20045;-80
2022/04/29 13:25:42;;;;;;;6.72;5.80;;;;;;;;;;5052810;28;20060;-79
2022/04/29 13:28:09;;;;;;;7.82;5.70;;;;;;;;;;5054434;28;20048;-80
2022/04/29 13:30:35;;;;;;;6.88;6.00;;;;;;;;;;5054003;28;20472;-80
2022/04/29 13:33:02;;;;;;;8.07;4.97;;;;;;;;;;5052385;28;20081;-81
2022/04/29 13:35:28;;;;;;;7.10;5.70;;;;;;;;;;5053796;28;20084;-81
2022/04/29 13:37:55;;;;;;;6.30;5.72;;;;;;;;;;5054150;28;20312;-83
2022/04/29 13:40:23;;;;;;;6.68;5.50;;;;;;;;;;5052841;28;20087;-82
2022/04/29 13:42:52;;;;;;;7.40;5.20;;;;;;;;;;5053848;28;20055;-81
2022/04/29 13:45:18;;;;;;;8.57;5.63;;;;;;;;;;5053915;28;20049;-81
2022/04/29 13:47:45;;;;;;;8.80;5.88;;;;;;;;;;5052730;28;20114;-82
2022/04/29 13:50:12;;;;;;;8.73;5.82;;;;;;;;;;5053818;28;20053;-82
2022/04/29 13:55:23;;;;;;;9.55;6.38;;;;;;;;;;5053777;28;20077;-82
2022/04/29 13:57:50;;;;;;;8.38;6.28;;;;;;;;;;5050806;28;20459;-78
2022/04/29 14:00:16;;;;;;;7.70;5.80;;;;;;;;;;5053360;28;20505;-81
2022/04/29 14:02:43;;;;;;;9.13;5.88;;;;;;;;;;5053267;28;20077;-76
2022/04/29 14:05:10;;;;;;;8.57;5.70;;;;;;;;;;5051592;28;20053;-87
2022/04/29 14:07:38;;;;;;;8.55;6.30;;;;;;;;;;5053503;28;20649;-76
2022/04/29 14:10:05;;;;;;;8.35;5.15;;;;;;;;;;5052016;28;20077;-77
2022/04/29 14:12:33;;;;;;;9.32;6.05;;;;;;;;;;5053111;28;20501;-81
2022/04/29 14:14:59;;;;;;;;;;;;;;;;;;5054033;28;20045;-75
2022/04/29 14:17:26;;;;;;;8.27;6.70;;;;;;;;;;5053409;28;19921;-77
2022/04/29 14:19:52;;;;;;;10.73;7.35;;;;;;;;;;5053756;28;20087;-77
2022/04/29 14:22:19;;;;;;;13.48;7.22;;;;;;;;;;5052356;28;20045;-81
2022/04/29 14:24:45;;;;;;;11.63;7.80;;;;;;;;;;5053646;28;20461;-82
2022/04/29 14:27:12;;;;;;;12.23;8.25;;;;;;;;;;5053323;28;20424;-82
2022/04/29 14:29:40;;;;;;;10.95;8.52;;;;;;;;;;5068632;28;20477;-74
2022/04/29 14:32:09;;;;;;;14.88;9.90;;;;;;;;;;5051710;28;20566;-77
2022/04/29 14:34:35;;;;;;;9.13;7.75;;;;;;;;;;5052881;28;20083;-75
2022/04/29 14:37:02;;;;;;;12.82;7.22;;;;;;;;;;5052656;28;20103;-74
2022/04/29 14:39:28;;;;;;;14.40;8.07;;;;;;;;;;5053045;28;20107;-75
2022/04/29 14:41:56;;;;;;;10.63;8.40;;;;;;;;;;5049568;28;20091;-76
2022/04/29 14:44:23;;;;;;;11.10;7.88;;;;;;;;;;5052498;28;20501;-76
2022/04/29 14:46:50;;;;;;;9.38;8.40;;;;;;;;;;5051064;28;20045;-76
2022/04/29 14:49:16;;;;;;;10.33;7.47;;;;;;;;;;5051510;28;20052;-78
2022/04/29 14:51:43;;;;;;;14.27;8.52;;;;;;;;;;5052869;28;20100;-78
2022/04/29 14:54:09;;;;;;;11.75;7.80;;;;;;;;;;5052322;28;20087;-78
2022/04/29 14:56:40;;;;;;;11.95;8.05;;;;;;;;;;5049757;28;20107;-73
2022/04/29 14:59:07;;;;;;;9.35;6.95;;;;;;;;;;5052657;28;20041;-73
2022/04/29 15:01:34;;;;;;;10.00;8.40;;;;;;;;;;5052492;28;20084;-73
2022/04/29 15:04:00;;;;;;;11.60;8.60;;;;;;;;;;5052754;28;20083;-73
2022/04/29 15:06:27;;;;;;;9.63;7.60;;;;;;;;;;5052628;28;20049;-74
2022/04/29 15:15:34;;;;;;;11.00;8.13;;;;;;;;;;5038470;28;20080;-73
2022/04/29 15:17:20;;;;;;;10.57;7.15;;;;;;;;;;5052485;28;20467;-76
2022/04/29 15:19:47;;;;;;;11.57;7.47;;;;;;;;;;5052359;28;20072;-75
2022/04/29 15:22:14;;;;;;;11.00;7.30;;;;;;;;;;5050761;28;20041;-74